createdAt,value
2023-05-24T00:11:28.447Z,68.12
2023-05-24T00:26:30.631Z,69.96
2023-05-24T00:41:32.760Z,70.07
2023-05-24T00:56:35.057Z,70.96
2023-05-24T01:11:52.200Z,72.03
2023-05-24T01:27:14.893Z,73.62
2023-05-24T01:42:42.430Z,74.03
2023-05-24T01:57:48.576Z,74.53
2023-05-24T02:12:50.807Z,75.81
2023-05-24T02:27:52.914Z,76.71
2023-05-24T02:42:55.045Z,76.52
2023-05-24T02:57:57.089Z,76.81
2023-05-24T03:12:59.081Z,77.20
2023-05-24T03:28:02.822Z,76.99
2023-05-24T03:43:04.850Z,76.75
2023-05-24T03:58:06.935Z,76.11
2023-05-24T04:13:09.368Z,73.60
2023-05-24T04:28:11.391Z,69.23
2023-05-24T04:43:13.408Z,63.63
2023-05-24T04:58:16.311Z,62.28
2023-05-24T05:13:18.382Z,60.81
2023-05-24T05:28:20.546Z,59.48
2023-05-24T05:43:22.775Z,58.17
2023-05-24T05:58:25.051Z,56.10
2023-05-24T06:13:28.674Z,53.39
2023-05-24T06:28:30.716Z,51.89
2023-05-24T06:43:33.644Z,52.36
2023-05-24T06:58:36.806Z,51.28
2023-05-24T07:13:39.338Z,50.60
2023-05-24T07:28:41.857Z,49.57
2023-05-24T07:43:44.063Z,49.52
2023-05-24T07:58:47.175Z,49.30
2023-05-24T08:13:49.481Z,49.68
2023-05-24T08:28:51.837Z,52.09
2023-05-24T08:44:01.618Z,52.13
2023-05-24T08:59:03.802Z,50.95
2023-05-24T09:14:05.994Z,47.29
2023-05-24T09:29:09.681Z,49.05
2023-05-24T09:44:15.503Z,48.43
2023-05-24T09:59:18.949Z,50.71
2023-05-24T10:14:22.138Z,51.90
2023-05-24T10:29:59.460Z,53.22
2023-05-24T10:45:25.307Z,52.15
2023-05-24T11:15:35.088Z,50.97
2023-05-24T11:30:47.944Z,48.55
2023-05-24T11:45:52.258Z,48.79
2023-05-24T12:00:54.348Z,48.32
2023-05-24T12:15:58.494Z,45.85
2023-05-24T12:31:00.643Z,46.00
2023-05-24T12:46:03.630Z,44.82
2023-05-24T13:01:05.942Z,45.02
2023-05-24T13:16:09.265Z,45.26
2023-05-24T13:31:14.265Z,45.23
2023-05-24T13:46:16.459Z,46.14
2023-05-24T14:01:18.609Z,47.76
2023-05-24T14:16:20.980Z,48.25
2023-05-24T14:31:23.489Z,48.41
2023-05-24T14:46:25.805Z,45.25
2023-05-24T15:01:28.024Z,43.13
2023-05-24T15:16:30.328Z,41.60
2023-05-24T15:31:32.793Z,40.73
2023-05-24T15:46:36.860Z,39.35
2023-05-24T16:01:39.034Z,40.71
2023-05-24T16:16:42.365Z,43.99
2023-05-24T16:31:44.600Z,45.31
2023-05-24T16:46:47.163Z,65.27
2023-05-24T17:01:50.970Z,71.02
2023-05-24T17:16:53.158Z,75.58
2023-05-24T17:31:55.344Z,76.17
2023-05-24T17:47:00.110Z,78.54
2023-05-24T18:02:02.586Z,80.56
2023-05-24T18:17:05.188Z,79.42
2023-05-24T18:32:07.473Z,80.26
2023-05-24T18:47:11.201Z,80.82
2023-05-24T19:02:13.858Z,80.66
2023-05-24T19:17:16.085Z,81.53
2023-05-24T19:32:20.662Z,81.50
2023-05-24T19:47:22.838Z,82.75
2023-05-24T20:02:25.147Z,82.68
2023-05-24T20:17:27.531Z,82.54
2023-05-24T20:32:29.980Z,83.74
2023-05-24T20:47:32.525Z,83.16
2023-05-24T21:02:34.945Z,82.90
2023-05-24T21:17:38.413Z,83.23
2023-05-24T21:32:40.721Z,83.15
2023-05-24T21:47:43.178Z,83.92
2023-05-24T22:02:45.319Z,83.70
2023-05-24T22:17:48.571Z,83.75
2023-05-24T22:32:51.335Z,84.17
2023-05-24T22:47:54.422Z,84.56
2023-05-24T23:02:56.461Z,84.91
2023-05-24T23:17:58.603Z,85.25
2023-05-24T23:33:00.819Z,85.34
2023-05-24T23:48:02.856Z,85.76
